OJAQ/AQJ METAR and TAF weather

Enter ICAO airport designator
Station Type Date Time Source
OJAQ METAR 2022/06/27 17:00 UTC NOAA

OJAQ 271700Z 34010KT CAVOK 37/09 Q1005 NOSIG


Station Type Date Time Source
OJAQ Decoded METAR 2022/06/27 17:00 UTC NOAA

Aqaba Airport, Jordan (OJAQ) 29-38N 035-01E 51M
Jun 27, 2022 - 01:00 PM EDT / 2022.06.27 1700 UTC
Wind: from the NNW (340 degrees) at 12 MPH (10 KT):0
Visibility: greater than 7 mile(s):0
Temperature: 98 F (37 C)
Heat index: 94.5 F (34.7 C):1
Dew Point: 48 F (9 C)
Relative Humidity: 18%
Pressure (altimeter): 29.68 in. Hg (1005 hPa)
ob: OJAQ 271700Z 34010KT CAVOK 37/09 Q1005 NOSIG
cycle: 17

Station Type Date Time Source
OJAQ TAF 2022/06/27 18:15 UTC NOAA

TAF TAF OJAQ 271700Z 2718/2824 36010KT CAVOK

Example: see airport list